Time;durP1;ratioP1;P1;durP2;ratioP2;P2;SDS_P1;SDS_P2;PMS_P1;PMS_P2;Temp;Humidity;BMP_temperature;BMP_pressure;BME280_temperature;BME280_humidity;BME280_pressure;Samples;Min_cycle;Max_cycle;Signal;HPM_P1;HPM_P2
2022/05/13 00:01:44;;;;;;;11.07;2.63;;;;;;;11.28;67.43;101754.16;5021807;28;20394;-70
2022/05/13 00:04:10;;;;;;;7.07;2.58;;;;;;;11.23;67.82;101753.94;5022567;28;20026;-71
2022/05/13 00:06:35;;;;;;;11.20;2.63;;;;;;;11.20;68.25;101753.50;5022590;28;20427;-70
2022/05/13 00:09:00;;;;;;;11.38;3.00;;;;;;;11.18;68.12;101757.31;5021292;28;20034;-70
2022/05/13 00:11:26;;;;;;;10.85;3.08;;;;;;;11.13;68.64;101754.38;5022814;28;20025;-70
2022/05/13 00:13:51;;;;;;;10.45;2.72;;;;;;;11.10;68.57;101763.06;5023266;28;20164;-70
2022/05/13 00:16:17;;;;;;;8.98;2.90;;;;;;;11.06;69.14;101745.28;5021756;28;20104;-70
2022/05/13 00:18:42;;;;;;;12.57;2.85;;;;;;;11.03;68.67;101748.44;5021981;28;20037;-70
2022/05/13 00:21:08;;;;;;;10.80;2.83;;;;;;;11.02;69.17;101748.66;5021211;28;20037;-70
2022/05/13 00:23:33;;;;;;;14.15;3.08;;;;;;;10.92;69.67;101746.34;5022736;28;20072;-70
2022/05/13 00:25:58;;;;;;;11.48;2.92;;;;;;;10.85;69.96;101742.75;5021445;28;20813;-70
2022/05/13 00:28:24;;;;;;;10.45;3.13;;;;;;;10.81;70.42;101746.97;5021583;28;20029;-70
2022/05/13 00:30:49;;;;;;;9.02;3.15;;;;;;;10.74;70.77;101749.69;5018864;28;20079;-70
2022/05/13 00:33:16;;;;;;;11.00;3.47;;;;;;;10.71;71.20;101747.38;5023351;28;20350;-71
2022/05/13 00:35:42;;;;;;;9.60;3.10;;;;;;;10.67;71.15;101748.00;5019087;28;20032;-70
2022/05/13 00:38:07;;;;;;;13.20;3.20;;;;;;;10.66;71.19;101749.91;5022675;28;20045;-71
2022/05/13 00:40:33;;;;;;;9.88;3.38;;;;;;;10.64;71.33;101744.63;5020877;28;20587;-71
2022/05/13 00:43:02;;;;;;;9.38;3.20;;;;;;;10.59;71.83;101743.53;5035130;28;20414;-70
2022/05/13 00:45:28;;;;;;;10.32;3.28;;;;;;;10.57;71.77;101748.41;5031903;28;20033;-70
2022/05/13 00:47:54;;;;;;;9.57;3.20;;;;;;;10.59;71.37;101747.16;5025376;28;20132;-70
2022/05/13 00:50:20;;;;;;;13.23;3.22;;;;;;;10.58;71.29;101750.94;5022744;28;20160;-70
2022/05/13 00:52:49;;;;;;;8.45;3.30;;;;;;;10.55;71.74;101745.88;5023508;28;20029;-69
2022/05/13 00:55:20;;;;;;;11.57;3.55;;;;;;;10.54;71.80;101744.19;5023990;28;20045;-69
2022/05/13 00:57:46;;;;;;;8.13;3.15;;;;;;;10.49;71.96;101737.59;5026643;28;20549;-69
2022/05/13 01:00:15;;;;;;;9.13;3.10;;;;;;;10.45;71.87;101748.19;5025137;28;20886;-69
2022/05/13 01:02:43;;;;;;;7.68;3.63;;;;;;;10.50;71.44;101748.41;5025108;28;20076;-70
2022/05/13 01:05:10;;;;;;;10.20;3.30;;;;;;;10.52;71.48;101739.94;5025240;28;20059;-69
2022/05/13 01:07:36;;;;;;;12.05;3.20;;;;;;;10.47;71.73;101737.00;5025900;28;20040;-69
2022/05/13 01:10:05;;;;;;;10.90;3.50;;;;;;;10.45;71.96;101741.84;5023083;28;20038;-69
2022/05/13 01:12:36;;;;;;;11.45;3.47;;;;;;;10.43;71.98;101741.19;5025962;28;20057;-69
2022/05/13 01:15:07;;;;;;;7.88;3.10;;;;;;;10.36;72.06;101733.78;5026031;28;20060;-70
2022/05/13 01:20:22;;;;;;;12.88;4.38;;;;;;;10.29;72.66;101734.81;5021314;28;20119;-70
2022/05/13 01:22:51;;;;;;;11.13;4.00;;;;;;;10.30;73.13;101734.63;5026246;28;20460;-69
2022/05/13 01:25:21;;;;;;;12.50;4.43;;;;;;;10.28;73.14;101733.97;5024134;28;20029;-69
2022/05/13 01:27:48;;;;;;;15.18;4.22;;;;;;;10.27;73.29;101732.28;5024029;28;20496;-70
2022/05/13 01:30:25;;;;;;;11.77;3.80;;;;;;;10.22;73.75;101729.28;5023472;28;20025;-70
2022/05/13 01:32:51;;;;;;;15.48;4.50;;;;;;;10.17;73.57;101730.97;5025876;28;20472;-70
2022/05/13 01:35:17;;;;;;;11.45;4.22;;;;;;;10.13;74.40;101736.84;5024112;28;20040;-70
2022/05/13 01:37:42;;;;;;;13.07;4.13;;;;;;;10.13;73.98;101736.00;5024318;28;20167;-71
2022/05/13 01:40:09;;;;;;;12.52;3.75;;;;;;;10.12;74.08;101734.31;5025457;28;20495;-70
2022/05/13 01:42:34;;;;;;;15.05;4.13;;;;;;;10.06;74.10;101738.75;5024108;28;20045;-70
2022/05/13 01:45:00;;;;;;;12.68;3.80;;;;;;;10.05;74.15;101738.97;5024488;28;20025;-70
2022/05/13 01:47:27;;;;;;;8.25;4.10;;;;;;;10.11;74.02;101747.22;5025272;28;20021;-69
2022/05/13 01:49:53;;;;;;;10.10;3.92;;;;;;;10.20;73.20;101745.13;5023093;28;20702;-71
2022/05/13 01:52:18;;;;;;;9.30;3.58;;;;;;;10.26;73.06;101748.97;5026360;28;20037;-70
2022/05/13 01:54:43;;;;;;;10.00;3.63;;;;;;;10.27;73.22;101743.28;5024157;28;20050;-70
2022/05/13 01:57:09;;;;;;;9.85;3.80;;;;;;;10.29;73.16;101738.44;5025351;28;20156;-66
2022/05/13 01:59:34;;;;;;;9.65;3.50;;;;;;;10.33;72.23;101736.09;5024765;28;20026;-70
2022/05/13 02:01:59;;;;;;;10.77;3.65;;;;;;;10.33;72.16;101738.84;5023541;28;20158;-70
2022/05/13 02:04:25;;;;;;;7.97;3.42;;;;;;;10.33;71.99;101741.59;5024534;28;20021;-70
2022/05/13 02:06:50;;;;;;;10.85;3.70;;;;;;;10.32;71.87;101729.78;5022147;28;20362;-71
2022/05/13 02:09:15;;;;;;;10.73;4.10;;;;;;;10.32;72.20;101737.16;5022821;28;20079;-71
2022/05/13 02:11:41;;;;;;;9.93;3.58;;;;;;;10.27;72.75;101735.03;5024532;28;20508;-70
2022/05/13 02:14:06;;;;;;;13.57;3.67;;;;;;;10.25;72.58;101739.91;5024194;28;20026;-70
2022/05/13 02:16:32;;;;;;;12.55;3.88;;;;;;;10.19;72.94;101726.97;5025101;28;20037;-70
2022/05/13 02:18:58;;;;;;;11.43;3.65;;;;;;;10.20;72.95;101730.56;5023881;28;20072;-70
2022/05/13 02:21:24;;;;;;;10.23;3.45;;;;;;;10.14;72.22;101732.25;5021652;28;20033;-71
2022/05/13 02:23:49;;;;;;;10.95;3.42;;;;;;;10.07;72.38;101732.19;5024992;28;20057;-70
2022/05/13 02:26:16;;;;;;;9.48;3.47;;;;;;;10.06;72.33;101732.41;5023482;28;20059;-71
2022/05/13 02:28:42;;;;;;;12.93;3.72;;;;;;;10.07;72.48;101734.94;5021544;28;20033;-71
2022/05/13 02:31:08;;;;;;;15.77;3.80;;;;;;;10.06;72.88;101735.16;5025003;28;20032;-70
2022/05/13 02:33:34;;;;;;;7.03;3.20;;;;;;;10.05;72.89;101736.22;5023237;28;20026;-70
2022/05/13 02:36:00;;;;;;;11.27;3.75;;;;;;;10.06;73.46;101730.50;5022224;28;20029;-69
2022/05/13 02:38:26;;;;;;;13.02;4.28;;;;;;;10.11;73.17;101727.16;5022309;28;20058;-70
2022/05/13 02:43:36;;;;;;;13.80;4.28;;;;;;;10.18;73.00;101733.50;5024229;28;20119;-70
2022/05/13 02:46:02;;;;;;;16.92;4.00;;;;;;;10.19;73.36;101724.22;5022461;28;20080;-70
2022/05/13 02:48:28;;;;;;;11.93;4.30;;;;;;;10.26;73.24;101722.38;5022732;28;20026;-70
2022/05/13 02:50:53;;;;;;;12.18;3.72;;;;;;;10.25;73.43;101717.09;5022459;28;20469;-70
2022/05/13 02:53:19;;;;;;;10.77;4.25;;;;;;;10.26;73.42;101727.84;5022557;28;20115;-70
2022/05/13 02:55:45;;;;;;;10.52;4.38;;;;;;;10.28;73.50;101725.75;5023512;28;20089;-70
